KENV/ENV METAR and TAF weather

Enter ICAO airport designator
Station Type Date Time Source
KENV METAR 2021/07/26 12:56 UTC NOAA

KENV 261256Z AUTO 03005KT 8SM CLR 20/03 A3004 RMK AO2 SLP123 T02000033


Station Type Date Time Source
KENV Decoded METAR 2021/07/26 12:56 UTC NOAA

Wendover / Air Force Auxillary Field, UT, United States (KENV) 40-44N 114-02W 1292M
Jul 26, 2021 - 08:56 AM EDT / 2021.07.26 1256 UTC
Wind: from the NNE (030 degrees) at 6 MPH (5 KT):0
Visibility: 8 mile(s):0
Sky conditions: clear
Temperature: 68.0 F (20.0 C)
Dew Point: 37.9 F (3.3 C)
Relative Humidity: 33%
Pressure (altimeter): 30.04 in. Hg (1017 hPa)
ob: KENV 261256Z AUTO 03005KT 8SM CLR 20/03 A3004 RMK AO2 SLP123 T02000033
cycle: 13

Station Type Date Time Source
KENV TAF 2021/07/26 12:22 UTC NOAA

TAF KENV 261120Z 2612/2712 34005KT P6SM FEW250
FM261700 12010KT 6SM HZ FEW200
FM270000 16014G20KT P6SM SCT250
FM270600 21010KT P6SM SCT250

Example: see airport list